Time;durP1;ratioP1;P1;durP2;ratioP2;P2;SDS_P1;SDS_P2;PMS_P1;PMS_P2;Temp;Humidity;BMP_temperature;BMP_pressure;BME280_temperature;BME280_humidity;BME280_pressure;Samples;Min_cycle;Max_cycle;Signal;HPM_P1;HPM_P2
2023/04/28 00:00:25;;;;;;;27.63;18.48;;;5.80;99.90;;;;;;2090814;28;20040;-68
2023/04/28 00:01:25;;;;;;;28.13;19.15;;;5.80;99.90;;;;;;2090932;28;20107;-68
2023/04/28 00:02:26;;;;;;;25.80;17.45;;;5.80;99.90;;;;;;2090646;28;20032;-69
2023/04/28 00:03:27;;;;;;;25.75;18.00;;;5.80;99.90;;;;;;2080964;28;20017;-69
2023/04/28 00:04:28;;;;;;;27.52;18.30;;;5.80;99.90;;;;;;2081668;28;20025;-69
2023/04/28 00:05:28;;;;;;;27.02;17.75;;;5.80;99.90;;;;;;2088388;28;20029;-69
2023/04/28 00:06:29;;;;;;;24.48;17.73;;;5.80;99.90;;;;;;2082639;28;20123;-69
2023/04/28 00:07:30;;;;;;;25.67;17.50;;;5.80;99.90;;;;;;2073548;28;20117;-68
2023/04/28 00:08:31;;;;;;;23.38;17.27;;;5.80;99.90;;;;;;2074973;28;20084;-69
2023/04/28 00:09:31;;;;;;;24.30;17.00;;;5.80;99.90;;;;;;2069388;28;20199;-69
2023/04/28 00:10:32;;;;;;;25.77;17.83;;;5.80;99.90;;;;;;2083402;28;20486;-69
2023/04/28 00:11:33;;;;;;;22.95;17.15;;;5.80;99.90;;;;;;2095392;28;20028;-69
2023/04/28 00:12:33;;;;;;;21.95;16.73;;;5.80;99.90;;;;;;2084189;28;20029;-68
2023/04/28 00:13:34;;;;;;;25.92;17.17;;;5.80;99.90;;;;;;2081791;28;20025;-68
2023/04/28 00:14:34;;;;;;;22.88;16.85;;;5.70;99.90;;;;;;2090819;28;20028;-70
2023/04/28 00:15:35;;;;;;;23.77;17.15;;;5.70;99.90;;;;;;2090831;28;20160;-68
2023/04/28 00:16:35;;;;;;;28.33;17.38;;;5.80;99.90;;;;;;2081879;28;20153;-69
2023/04/28 00:17:36;;;;;;;24.00;17.50;;;5.70;99.90;;;;;;2083759;28;20028;-70
2023/04/28 00:18:36;;;;;;;26.88;18.10;;;5.80;99.90;;;;;;2095037;28;20104;-70
2023/04/28 00:19:37;;;;;;;26.95;18.10;;;5.80;99.90;;;;;;2081486;28;20569;-70
2023/04/28 00:20:38;;;;;;;23.92;17.70;;;5.70;99.90;;;;;;2081885;28;20125;-68
2023/04/28 00:21:38;;;;;;;27.92;17.95;;;5.70;99.90;;;;;;2092935;28;20039;-69
2023/04/28 00:22:39;;;;;;;23.38;17.30;;;5.70;99.90;;;;;;2081828;28;20582;-68
2023/04/28 00:23:40;;;;;;;22.88;16.90;;;5.70;99.90;;;;;;2081764;28;20028;-68
2023/04/28 00:24:40;;;;;;;24.02;16.90;;;5.70;99.90;;;;;;2081593;28;20036;-69
2023/04/28 00:25:41;;;;;;;24.58;15.93;;;5.70;99.90;;;;;;2083795;28;20028;-68
2023/04/28 00:26:41;;;;;;;23.88;16.40;;;5.70;99.90;;;;;;2090812;28;20127;-69
2023/04/28 00:27:42;;;;;;;23.23;16.00;;;5.70;99.90;;;;;;2090458;28;20021;-69
2023/04/28 00:28:43;;;;;;;24.80;17.23;;;5.70;99.90;;;;;;2090534;28;20452;-68
2023/04/28 00:29:43;;;;;;;22.67;16.88;;;5.70;99.90;;;;;;2092093;28;20028;-68
2023/04/28 00:30:44;;;;;;;26.13;17.10;;;5.70;99.90;;;;;;2087590;28;20020;-77
2023/04/28 00:31:44;;;;;;;24.70;17.35;;;5.70;99.90;;;;;;2080001;28;20033;-77
2023/04/28 00:32:45;;;;;;;31.23;19.40;;;5.70;99.90;;;;;;2081842;28;20656;-74
2023/04/28 00:33:46;;;;;;;31.88;20.45;;;5.70;99.90;;;;;;2092009;28;20663;-68
2023/04/28 00:34:46;;;;;;;34.47;20.98;;;5.70;99.90;;;;;;2087658;28;20115;-78
2023/04/28 00:35:47;;;;;;;34.30;21.55;;;5.70;99.90;;;;;;2090584;28;20396;-76
2023/04/28 00:36:47;;;;;;;35.67;21.50;;;5.70;99.90;;;;;;2081401;28;20033;-76
2023/04/28 00:37:48;;;;;;;35.45;21.10;;;5.70;99.90;;;;;;2083762;28;20023;-78
2023/04/28 00:38:48;;;;;;;40.63;23.30;;;5.60;99.90;;;;;;2073459;28;20032;-78
2023/04/28 00:39:54;;;;;;;36.78;22.40;;;5.60;99.90;;;;;;2073396;28;20025;-77
2023/04/28 00:40:55;;;;;;;38.00;22.05;;;5.60;99.90;;;;;;2087433;28;20036;-79
2023/04/28 00:41:56;;;;;;;34.05;20.42;;;5.60;99.90;;;;;;2084926;28;20341;-78
2023/04/28 00:42:57;;;;;;;30.67;19.73;;;5.60;99.90;;;;;;2081995;28;20148;-78
2023/04/28 00:43:57;;;;;;;28.52;18.42;;;5.60;99.90;;;;;;2097156;28;20055;-78
2023/04/28 00:45:04;;;;;;;34.03;19.83;;;5.50;99.90;;;;;;2090662;28;20017;-78
2023/04/28 00:46:05;;;;;;;33.50;20.17;;;5.50;99.90;;;;;;2090455;28;20029;-77
2023/04/28 00:47:07;;;;;;;30.92;20.27;;;5.50;99.90;;;;;;2080308;28;20079;-77
2023/04/28 00:48:09;;;;;;;31.70;20.13;;;5.50;99.90;;;;;;2084392;28;20117;-78
2023/04/28 00:49:11;;;;;;;32.42;19.85;;;5.50;99.90;;;;;;2090437;28;20036;-78
2023/04/28 00:50:11;;;;;;;32.67;20.15;;;5.40;99.90;;;;;;2088387;28;20591;-77
2023/04/28 00:51:12;;;;;;;31.90;20.88;;;5.40;99.90;;;;;;2084318;28;20557;-77
2023/04/28 00:52:13;;;;;;;29.75;19.67;;;5.50;99.90;;;;;;2092411;28;20134;-77
2023/04/28 00:53:14;;;;;;;29.45;19.25;;;5.40;99.90;;;;;;2081329;28;20028;-78
2023/04/28 00:54:15;;;;;;;27.17;19.35;;;5.40;99.90;;;;;;2086261;28;20035;-76
2023/04/28 00:55:16;;;;;;;27.88;18.27;;;5.40;99.90;;;;;;2095143;28;20055;-76
2023/04/28 00:56:17;;;;;;;27.85;18.42;;;5.40;99.90;;;;;;2091497;28;20021;-77
2023/04/28 00:57:18;;;;;;;24.52;17.83;;;5.40;99.90;;;;;;2083209;28;20530;-77
2023/04/28 00:58:19;;;;;;;27.02;18.92;;;5.30;99.90;;;;;;2073263;28;20034;-77
2023/04/28 00:59:19;;;;;;;25.23;17.27;;;5.30;99.90;;;;;;2078909;28;20233;-77
2023/04/28 01:00:20;;;;;;;23.80;17.38;;;5.30;99.90;;;;;;2083440;28;20735;-77
2023/04/28 01:01:21;;;;;;;26.95;17.75;;;5.30;99.90;;;;;;2073204;28;20021;-77
2023/04/28 01:02:22;;;;;;;27.02;18.13;;;5.30;99.90;;;;;;2073124;28;20049;-77
2023/04/28 01:03:22;;;;;;;30.30;19.88;;;5.30;99.90;;;;;;2073157;28;20029;-76
2023/04/28 01:04:25;;;;;;;28.63;19.27;;;5.30;99.90;;;;;;2081308;28;20506;-76
2023/04/28 01:05:26;;;;;;;27.02;19.23;;;5.30;99.90;;;;;;2089742;28;20024;-76
2023/04/28 01:06:27;;;;;;;34.20;20.83;;;5.30;99.90;;;;;;2092581;28;20035;-77
2023/04/28 01:07:30;;;;;;;35.20;21.98;;;5.30;99.90;;;;;;2081273;28;20119;-77
2023/04/28 01:08:32;;;;;;;39.10;23.17;;;5.30;99.90;;;;;;2081301;28;20017;-77
2023/04/28 01:09:33;;;;;;;40.65;23.65;;;5.30;99.90;;;;;;2076665;28;20432;-76
2023/04/28 01:10:35;;;;;;;41.20;24.02;;;5.20;99.90;;;;;;2074766;28;20507;-77
2023/04/28 01:11:42;;;;;;;38.33;23.08;;;5.20;99.90;;;;;;2071786;28;20036;-77
2023/04/28 01:12:45;;;;;;;35.38;22.02;;;5.30;99.90;;;;;;2066020;28;20440;-77
2023/04/28 01:13:45;;;;;;;36.70;22.52;;;5.30;99.90;;;;;;2073012;28;20029;-77
2023/04/28 01:14:48;;;;;;;33.38;20.95;;;5.20;99.90;;;;;;2064161;28;20080;-77
2023/04/28 01:15:49;;;;;;;38.08;22.35;;;5.20;99.90;;;;;;2065453;28;20030;-76
2023/04/28 01:16:49;;;;;;;33.97;21.40;;;5.30;99.90;;;;;;2075089;28;20053;-77
2023/04/28 01:17:50;;;;;;;33.58;21.58;;;5.30;99.90;;;;;;2064957;28;20026;-77
2023/04/28 01:18:51;;;;;;;33.33;20.80;;;5.20;99.90;;;;;;2073098;28;20040;-77
2023/04/28 01:19:52;;;;;;;34.03;21.40;;;5.20;99.90;;;;;;2081953;28;20029;-75
2023/04/28 01:20:53;;;;;;;29.23;20.17;;;5.30;99.90;;;;;;2077694;28;20036;-77
2023/04/28 01:21:54;;;;;;;29.92;19.73;;;5.30;99.90;;;;;;2078594;28;20031;-76
2023/04/28 01:22:55;;;;;;;27.65;19.08;;;5.20;99.90;;;;;;2085981;28;20016;-76
2023/04/28 01:23:57;;;;;;;26.23;17.65;;;5.30;99.90;;;;;;2073021;28;20414;-77
2023/04/28 01:24:59;;;;;;;24.52;18.15;;;5.30;99.90;;;;;;2083388;28;20025;-75
2023/04/28 01:26:00;;;;;;;23.67;16.85;;;5.30;99.90;;;;;;2083532;28;20180;-75
2023/04/28 01:27:01;;;;;;;26.13;17.52;;;5.30;99.90;;;;;;2072881;28;20094;-76
2023/04/28 01:28:02;;;;;;;23.67;17.38;;;5.30;99.90;;;;;;2081015;28;20283;-76
2023/04/28 01:29:03;;;;;;;21.40;16.27;;;5.30;99.90;;;;;;2090523;28;20685;-76
2023/04/28 01:30:04;;;;;;;24.70;17.40;;;5.30;99.90;;;;;;2092107;28;20036;-76
2023/04/28 01:31:04;;;;;;;20.20;15.82;;;5.30;99.90;;;;;;2081353;28;20029;-76
2023/04/28 01:32:05;;;;;;;21.15;16.35;;;5.30;99.90;;;;;;2075015;28;20460;-76
2023/04/28 01:33:07;;;;;;;20.52;16.23;;;5.30;99.90;;;;;;2075703;28;20056;-76
2023/04/28 01:34:08;;;;;;;20.42;16.08;;;5.30;99.90;;;;;;2077896;28;20497;-76
2023/04/28 01:35:10;;;;;;;19.90;16.25;;;5.30;99.90;;;;;;2083106;28;20393;-75
2023/04/28 01:36:10;;;;;;;21.98;16.20;;;5.30;99.90;;;;;;2076929;28;20176;-76
2023/04/28 01:37:11;;;;;;;23.33;16.55;;;5.30;99.90;;;;;;2081801;28;20033;-76
2023/04/28 01:38:11;;;;;;;24.38;16.73;;;5.30;99.90;;;;;;2085186;28;20797;-76
2023/04/28 01:39:12;;;;;;;22.10;16.05;;;5.30;99.90;;;;;;2083977;28;20175;-77
2023/04/28 01:40:15;;;;;;;25.48;16.80;;;5.30;99.90;;;;;;2085743;28;20492;-77
2023/04/28 01:41:18;;;;;;;21.75;15.98;;;5.30;99.90;;;;;;2080523;28;20025;-77
2023/04/28 01:42:19;;;;;;;23.08;16.70;;;5.30;99.90;;;;;;2084029;28;20134;-78
2023/04/28 01:43:19;;;;;;;19.83;15.73;;;5.30;99.90;;;;;;2082733;28;20067;-77
2023/04/28 01:44:20;;;;;;;21.50;16.52;;;5.30;99.90;;;;;;2069533;28;20033;-77
2023/04/28 01:45:22;;;;;;;20.05;15.88;;;5.30;99.90;;;;;;2078941;28;20028;-77
2023/04/28 01:46:23;;;;;;;21.65;15.90;;;5.30;99.90;;;;;;2087810;28;20443;-77
2023/04/28 01:47:24;;;;;;;22.13;16.30;;;5.30;99.90;;;;;;2085775;28;20020;-77
2023/04/28 01:48:26;;;;;;;21.10;16.00;;;5.30;99.90;;;;;;2092855;28;20166;-76
2023/04/28 01:49:26;;;;;;;21.40;16.85;;;5.30;99.90;;;;;;2098041;28;20148;-76
2023/04/28 01:50:27;;;;;;;24.25;16.83;;;5.30;99.90;;;;;;2087965;28;20037;-76
2023/04/28 01:51:27;;;;;;;22.17;16.75;;;5.30;99.90;;;;;;2086163;28;20168;-77
2023/04/28 01:52:28;;;;;;;23.60;17.25;;;5.30;99.90;;;;;;2097646;28;20036;-77
2023/04/28 01:53:29;;;;;;;25.33;18.00;;;5.30;99.90;;;;;;2084276;28;20026;-77
2023/04/28 01:54:30;;;;;;;22.13;16.23;;;5.30;99.90;;;;;;2092319;28;20029;-75
2023/04/28 01:55:31;;;;;;;22.83;16.88;;;5.20;99.90;;;;;;2086675;28;20074;-77
2023/04/28 01:56:32;;;;;;;21.75;16.60;;;5.20;99.90;;;;;;2091280;28;20316;-77
2023/04/28 01:57:34;;;;;;;22.10;16.13;;;5.20;99.90;;;;;;2091964;28;20032;-77
2023/04/28 01:58:35;;;;;;;24.35;17.38;;;5.20;99.90;;;;;;2076415;28;20024;-77
2023/04/28 01:59:36;;;;;;;22.52;17.70;;;5.20;99.90;;;;;;2078904;28;20029;-76
2023/04/28 02:00:39;;;;;;;23.60;17.10;;;5.20;99.90;;;;;;2077714;28;20036;-77
2023/04/28 02:01:40;;;;;;;23.15;17.75;;;5.20;99.90;;;;;;2080406;28;20125;-77
2023/04/28 02:02:41;;;;;;;25.95;18.05;;;5.20;99.90;;;;;;2078875;28;20218;-76
2023/04/28 02:03:41;;;;;;;22.08;17.45;;;5.20;99.90;;;;;;2084080;28;20025;-75
2023/04/28 02:04:42;;;;;;;23.10;17.33;;;5.10;99.90;;;;;;2085968;28;20028;-76
2023/04/28 02:05:42;;;;;;;21.50;16.88;;;5.20;99.90;;;;;;2083874;28;20043;-77
2023/04/28 02:06:43;;;;;;;22.33;16.65;;;5.20;99.90;;;;;;2083833;28;20112;-77
2023/04/28 02:07:46;;;;;;;24.73;16.88;;;5.20;99.90;;;;;;2091638;28;20028;-77
2023/04/28 02:08:47;;;;;;;22.77;17.42;;;5.20;99.90;;;;;;2091712;28;20074;-77
2023/04/28 02:09:47;;;;;;;24.77;17.98;;;5.20;99.90;;;;;;2087928;28;20028;-76
2023/04/28 02:10:48;;;;;;;22.77;17.23;;;5.20;99.90;;;;;;2094424;28;20517;-76
2023/04/28 02:11:49;;;;;;;22.95;17.25;;;5.20;99.90;;;;;;2083949;28;20028;-77
2023/04/28 02:12:50;;;;;;;23.30;17.38;;;5.10;99.90;;;;;;2075797;28;20045;-77
2023/04/28 02:13:51;;;;;;;24.08;17.17;;;5.20;99.90;;;;;;2084169;28;20051;-76
2023/04/28 02:14:52;;;;;;;21.38;17.02;;;5.20;99.90;;;;;;2085891;28;20023;-77
2023/04/28 02:15:52;;;;;;;23.65;17.15;;;5.10;99.90;;;;;;2077937;28;20026;-77
2023/04/28 02:16:54;;;;;;;21.45;15.98;;;5.10;99.90;;;;;;2079286;28;20053;-76
2023/04/28 02:17:56;;;;;;;22.65;16.75;;;5.10;99.90;;;;;;2081115;28;20033;-77
2023/04/28 02:18:56;;;;;;;22.60;16.55;;;5.10;99.90;;;;;;2081004;28;20048;-77
2023/04/28 02:19:57;;;;;;;22.38;16.45;;;5.10;99.90;;;;;;2083639;28;20247;-76
2023/04/28 02:20:57;;;;;;;22.48;16.73;;;5.10;99.90;;;;;;2084046;28;20025;-78
2023/04/28 02:21:58;;;;;;;21.48;17.10;;;5.10;99.90;;;;;;2090003;28;20034;-77
2023/04/28 02:22:58;;;;;;;21.85;16.95;;;5.10;99.90;;;;;;2076153;28;20157;-77
2023/04/28 02:23:59;;;;;;;21.40;16.65;;;5.10;99.90;;;;;;2083890;28;20021;-77
2023/04/28 02:25:00;;;;;;;22.50;16.33;;;5.10;99.90;;;;;;2083789;28;20044;-77
2023/04/28 02:26:02;;;;;;;21.23;16.10;;;5.10;99.90;;;;;;2084863;28;20075;-77
2023/04/28 02:27:04;;;;;;;19.85;15.85;;;5.10;99.90;;;;;;2087446;28;20095;-77
2023/04/28 02:28:05;;;;;;;19.92;15.43;;;5.10;99.90;;;;;;2091987;28;20040;-77
2023/04/28 02:29:08;;;;;;;21.40;15.95;;;5.10;99.90;;;;;;2085432;28;20029;-77
2023/04/28 02:30:09;;;;;;;21.30;16.08;;;5.10;99.90;;;;;;2075944;28;20032;-77
2023/04/28 02:31:10;;;;;;;21.85;16.00;;;5.10;99.90;;;;;;2083588;28;20115;-77
2023/04/28 02:32:11;;;;;;;23.85;16.10;;;5.10;99.90;;;;;;2080264;28;20029;-77
2023/04/28 02:33:11;;;;;;;23.23;16.52;;;5.10;99.90;;;;;;2081457;28;20622;-76
2023/04/28 02:34:13;;;;;;;21.65;16.75;;;5.10;99.90;;;;;;2077513;28;20029;-77
2023/04/28 02:35:13;;;;;;;19.65;15.77;;;5.10;99.90;;;;;;2084044;28;20060;-77
2023/04/28 02:36:14;;;;;;;23.95;16.80;;;5.10;99.90;;;;;;2084925;28;20037;-77
2023/04/28 02:37:15;;;;;;;22.90;15.93;;;5.10;99.90;;;;;;2087574;28;20117;-77
2023/04/28 02:38:16;;;;;;;23.95;15.88;;;5.10;99.90;;;;;;2085746;28;20529;-76
2023/04/28 02:39:17;;;;;;;19.75;16.83;;;5.10;99.90;;;;;;2073282;28;20052;-76
2023/04/28 02:40:17;;;;;;;23.42;16.77;;;5.10;99.90;;;;;;2075400;28;20084;-77
2023/04/28 02:41:18;;;;;;;20.05;16.40;;;5.10;99.90;;;;;;2075391;28;20448;-76
2023/04/28 02:42:19;;;;;;;22.38;16.52;;;5.10;99.90;;;;;;2083890;28;20113;-76
2023/04/28 02:43:19;;;;;;;20.08;15.48;;;5.00;99.90;;;;;;2084484;28;20033;-77
2023/04/28 02:44:20;;;;;;;20.67;16.48;;;5.00;99.90;;;;;;2081788;28;20036;-77
2023/04/28 02:45:20;;;;;;;20.98;16.02;;;5.00;99.90;;;;;;2096324;28;20504;-76
2023/04/28 02:46:21;;;;;;;20.08;16.25;;;5.00;99.90;;;;;;2082391;28;20559;-76
2023/04/28 02:47:22;;;;;;;22.25;15.65;;;5.00;99.90;;;;;;2084398;28;20417;-76
2023/04/28 02:48:23;;;;;;;21.02;15.65;;;4.90;99.90;;;;;;2082432;28;20048;-76
2023/04/28 02:49:24;;;;;;;22.70;16.02;;;5.00;99.90;;;;;;2074032;28;20510;-77
2023/04/28 02:50:25;;;;;;;21.23;16.42;;;4.90;99.90;;;;;;2074964;28;20115;-77
2023/04/28 02:51:25;;;;;;;21.70;15.98;;;5.00;99.90;;;;;;2093216;28;20028;-77
2023/04/28 02:52:26;;;;;;;21.95;16.83;;;4.90;99.90;;;;;;2085503;28;20075;-76
2023/04/28 02:53:27;;;;;;;21.75;16.95;;;4.90;99.90;;;;;;2075966;28;20052;-77
2023/04/28 02:54:27;;;;;;;24.35;17.45;;;4.90;99.90;;;;;;2074209;28;20073;-77
2023/04/28 02:55:30;;;;;;;22.67;16.92;;;4.90;99.90;;;;;;2082624;28;20021;-76
2023/04/28 02:56:30;;;;;;;21.17;16.75;;;4.90;99.90;;;;;;2084202;28;20577;-77
2023/04/28 02:57:32;;;;;;;21.90;17.30;;;5.00;99.90;;;;;;2074181;28;20029;-77
2023/04/28 02:58:32;;;;;;;23.05;16.75;;;5.00;99.90;;;;;;2074033;28;20025;-77
2023/04/28 02:59:34;;;;;;;20.67;16.05;;;5.00;99.90;;;;;;2073976;28;20111;-77
2023/04/28 03:00:35;;;;;;;20.38;16.38;;;5.00;99.90;;;;;;2073989;28;20025;-77
2023/04/28 03:01:36;;;;;;;21.73;17.00;;;5.00;99.90;;;;;;2087166;28;20048;-76
2023/04/28 03:02:36;;;;;;;23.08;17.08;;;5.10;99.90;;;;;;2084594;28;20053;-77
2023/04/28 03:03:37;;;;;;;23.52;17.15;;;5.10;99.90;;;;;;2081608;28;20375;-77
2023/04/28 03:04:38;;;;;;;23.15;16.40;;;5.10;99.90;;;;;;2077719;28;20221;-77
2023/04/28 03:05:38;;;;;;;21.25;16.63;;;5.10;99.90;;;;;;2085536;28;20196;-76
2023/04/28 03:06:39;;;;;;;22.00;15.68;;;5.20;99.90;;;;;;2097832;28;20036;-77
2023/04/28 03:07:40;;;;;;;20.75;16.52;;;5.20;99.90;;;;;;2090075;28;20032;-78
2023/04/28 03:08:41;;;;;;;22.30;16.20;;;5.20;99.90;;;;;;2090880;28;20029;-77
2023/04/28 03:09:42;;;;;;;19.25;16.10;;;5.20;99.90;;;;;;2075590;28;20044;-77
2023/04/28 03:10:42;;;;;;;23.30;16.75;;;5.20;99.90;;;;;;2086440;28;20120;-77
2023/04/28 03:11:43;;;;;;;21.70;16.20;;;5.30;99.90;;;;;;2076062;28;20067;-77
2023/04/28 03:12:43;;;;;;;21.10;16.02;;;5.30;99.90;;;;;;2068780;28;20385;-77
2023/04/28 03:13:44;;;;;;;22.75;17.02;;;5.30;99.90;;;;;;2077512;28;20467;-77
2023/04/28 03:14:45;;;;;;;21.02;15.23;;;5.30;99.90;;;;;;2077382;28;20056;-76
2023/04/28 03:15:45;;;;;;;20.48;15.10;;;5.30;99.90;;;;;;2075806;28;20258;-77
2023/04/28 03:16:46;;;;;;;20.88;16.45;;;5.30;99.90;;;;;;2082506;28;20025;-77
2023/04/28 03:17:47;;;;;;;20.42;16.00;;;5.30;99.90;;;;;;2081641;28;20033;-76
2023/04/28 03:18:48;;;;;;;21.25;15.98;;;5.30;99.90;;;;;;2074017;28;20030;-76
2023/04/28 03:19:49;;;;;;;19.50;16.20;;;5.20;99.90;;;;;;2084180;28;20055;-76
2023/04/28 03:20:50;;;;;;;22.95;16.27;;;5.20;99.90;;;;;;2081978;28;20025;-76
2023/04/28 03:21:50;;;;;;;19.27;15.02;;;5.20;99.90;;;;;;2080450;28;20061;-77
2023/04/28 03:22:51;;;;;;;20.52;15.05;;;5.10;99.90;;;;;;2077186;28;20038;-76
2023/04/28 03:23:52;;;;;;;21.40;15.90;;;5.10;99.90;;;;;;2088754;28;20282;-76
2023/04/28 03:24:53;;;;;;;20.20;15.65;;;5.10;99.90;;;;;;2081975;28;20095;-77
2023/04/28 03:25:54;;;;;;;21.20;16.13;;;5.10;99.90;;;;;;2082149;28;20554;-77
2023/04/28 03:26:55;;;;;;;21.58;16.00;;;5.10;99.90;;;;;;2095501;28;20057;-77
2023/04/28 03:27:56;;;;;;;21.75;16.48;;;5.10;99.90;;;;;;2091124;28;20090;-76
2023/04/28 03:28:56;;;;;;;21.83;16.23;;;5.00;99.90;;;;;;2084171;28;20055;-76
2023/04/28 03:29:58;;;;;;;23.35;15.93;;;5.00;99.90;;;;;;2074033;28;20025;-78
2023/04/28 03:30:58;;;;;;;21.42;15.68;;;5.00;99.90;;;;;;2084178;28;20531;-77
2023/04/28 03:31:59;;;;;;;20.92;15.55;;;5.00;99.90;;;;;;2084860;28;20522;-77
2023/04/28 03:32:59;;;;;;;20.30;15.70;;;5.00;99.90;;;;;;2075900;28;20527;-77
2023/04/28 03:34:00;;;;;;;20.85;16.00;;;5.00;99.90;;;;;;2078357;28;20037;-76
2023/04/28 03:35:01;;;;;;;20.15;16.20;;;5.00;99.90;;;;;;2073728;28;20029;-75
2023/04/28 03:36:02;;;;;;;21.48;15.70;;;5.00;99.90;;;;;;2080853;28;20036;-76
2023/04/28 03:37:03;;;;;;;20.38;15.85;;;4.90;99.90;;;;;;2086469;28;20036;-76
2023/04/28 03:38:04;;;;;;;19.77;15.50;;;4.90;99.90;;;;;;2086211;28;20198;-77
2023/04/28 03:39:05;;;;;;;20.90;15.90;;;4.90;99.90;;;;;;2082302;28;20036;-70
2023/04/28 03:40:06;;;;;;;22.35;16.42;;;4.90;99.90;;;;;;2075799;28;20097;-76
2023/04/28 03:41:25;;;;;;;21.00;16.15;;;4.90;99.90;;;;;;2074575;28;20475;-76
2023/04/28 03:42:51;;;;;;;21.92;16.27;;;4.90;99.90;;;;;;2088970;28;20063;-77
2023/04/28 03:44:00;;;;;;;23.77;17.00;;;4.90;99.90;;;;;;2082400;28;20025;-78
2023/04/28 03:45:07;;;;;;;22.23;16.85;;;4.90;99.90;;;;;;2074359;28;20056;-77
2023/04/28 03:46:07;;;;;;;21.08;15.80;;;4.90;99.90;;;;;;2074035;28;20034;-76
2023/04/28 03:47:08;;;;;;;21.13;16.08;;;4.90;99.90;;;;;;2082188;28;20396;-77
2023/04/28 03:48:10;;;;;;;19.52;15.55;;;4.90;99.90;;;;;;2078206;28;20642;-75
2023/04/28 03:49:10;;;;;;;19.35;15.90;;;4.90;99.90;;;;;;2084078;28;20039;-77
2023/04/28 03:50:11;;;;;;;21.85;16.67;;;4.90;99.90;;;;;;2077060;28;20072;-74
2023/04/28 03:51:11;;;;;;;22.20;16.38;;;4.90;99.90;;;;;;2081975;28;20079;-78
2023/04/28 03:52:12;;;;;;;23.15;17.00;;;4.90;99.90;;;;;;2084071;28;20024;-78
2023/04/28 03:53:13;;;;;;;20.27;16.08;;;4.90;99.90;;;;;;2086586;28;20523;-78
2023/04/28 03:54:13;;;;;;;21.67;16.25;;;5.00;99.90;;;;;;2081920;28;20021;-76
2023/04/28 03:55:15;;;;;;;21.45;17.05;;;5.00;99.90;;;;;;2069481;28;20063;-75
2023/04/28 03:56:15;;;;;;;20.92;16.17;;;5.00;99.90;;;;;;2074307;28;20027;-76
2023/04/28 03:57:16;;;;;;;21.17;16.27;;;5.00;99.90;;;;;;2084020;28;20377;-79
2023/04/28 03:58:17;;;;;;;20.02;16.02;;;5.00;99.90;;;;;;2081458;28;20554;-76
2023/04/28 03:59:19;;;;;;;20.85;16.17;;;5.00;99.90;;;;;;2080246;28;20116;-77
2023/04/28 04:00:20;;;;;;;21.13;15.70;;;5.00;99.90;;;;;;2078067;28;20025;-78
2023/04/28 04:01:23;;;;;;;21.30;16.00;;;5.00;99.90;;;;;;2077228;28;20124;-77
2023/04/28 04:02:24;;;;;;;19.23;15.35;;;5.00;99.90;;;;;;2079909;28;20128;-76
2023/04/28 04:03:25;;;;;;;20.48;16.10;;;5.00;99.90;;;;;;2073657;28;20037;-76
2023/04/28 04:04:26;;;;;;;26.55;16.20;;;5.00;99.90;;;;;;2086796;28;20102;-76
2023/04/28 04:05:27;;;;;;;20.35;16.13;;;5.10;99.90;;;;;;2095583;28;20113;-77
2023/04/28 04:06:28;;;;;;;21.27;15.63;;;5.10;99.90;;;;;;2082187;28;20025;-75
2023/04/28 04:07:28;;;;;;;21.40;14.75;;;5.10;99.90;;;;;;2075608;28;20059;-76
2023/04/28 04:08:29;;;;;;;21.58;15.38;;;5.10;99.90;;;;;;2085945;28;20028;-76
2023/04/28 04:09:30;;;;;;;21.67;16.00;;;5.20;99.90;;;;;;2088086;28;20629;-76
2023/04/28 04:10:31;;;;;;;21.25;15.85;;;5.20;99.90;;;;;;2085609;28;20070;-76
2023/04/28 04:11:32;;;;;;;19.50;15.35;;;5.20;99.90;;;;;;2083785;28;20025;-77
2023/04/28 04:12:33;;;;;;;23.73;16.77;;;5.20;99.90;;;;;;2081560;28;20607;-77
2023/04/28 04:13:33;;;;;;;22.52;16.13;;;5.30;99.90;;;;;;2069974;28;20032;-76
2023/04/28 04:14:35;;;;;;;20.00;16.00;;;5.30;99.90;;;;;;2075286;28;20125;-76
2023/04/28 04:15:36;;;;;;;21.83;16.90;;;5.30;99.90;;;;;;2073399;28;20026;-76
2023/04/28 04:16:38;;;;;;;20.65;15.88;;;5.40;99.90;;;;;;2079904;28;20031;-76
2023/04/28 04:17:39;;;;;;;23.50;16.77;;;5.40;99.90;;;;;;2065822;28;20104;-77
2023/04/28 04:18:40;;;;;;;23.33;16.15;;;5.40;99.90;;;;;;2073762;28;20111;-76
2023/04/28 04:19:50;;;;;;;20.98;16.45;;;5.50;99.90;;;;;;2081678;28;20053;-76
2023/04/28 04:20:52;;;;;;;21.90;16.20;;;5.50;99.90;;;;;;2073403;28;20037;-76
2023/04/28 04:21:53;;;;;;;20.13;15.85;;;5.60;99.90;;;;;;2083387;28;20021;-77
2023/04/28 04:22:54;;;;;;;18.77;15.45;;;5.60;99.90;;;;;;2078244;28;20113;-76
2023/04/28 04:23:54;;;;;;;21.23;15.73;;;5.60;99.90;;;;;;2081806;28;20078;-76
2023/04/28 04:24:55;;;;;;;20.70;16.10;;;5.70;99.90;;;;;;2081662;28;20476;-77
2023/04/28 04:25:56;;;;;;;22.02;15.98;;;5.70;99.90;;;;;;2080396;28;20401;-77
2023/04/28 04:26:57;;;;;;;20.30;15.60;;;5.70;99.90;;;;;;2083829;28;20048;-77
2023/04/28 04:28:10;;;;;;;21.25;15.18;;;5.80;99.90;;;;;;2075391;28;20167;-77
2023/04/28 04:29:10;;;;;;;20.85;15.38;;;5.80;99.90;;;;;;2072468;28;20173;-77
2023/04/28 04:30:11;;;;;;;18.90;14.90;;;5.80;99.90;;;;;;2082729;28;20025;-75
2023/04/28 04:31:12;;;;;;;19.50;14.88;;;5.80;99.90;;;;;;2085340;28;20612;-75
2023/04/28 04:32:13;;;;;;;20.20;15.52;;;5.90;99.90;;;;;;2082415;28;20017;-76
2023/04/28 04:33:15;;;;;;;23.25;15.25;;;5.90;99.90;;;;;;2083342;28;20029;-77
2023/04/28 04:34:15;;;;;;;22.80;15.50;;;5.90;99.90;;;;;;2083438;28;20031;-76
2023/04/28 04:35:16;;;;;;;21.17;15.45;;;5.90;99.90;;;;;;2073687;28;20322;-74
2023/04/28 04:36:17;;;;;;;20.77;15.63;;;6.00;99.90;;;;;;2081420;28;20025;-76
2023/04/28 04:37:18;;;;;;;19.73;15.00;;;6.00;99.90;;;;;;2075492;28;20041;-75
2023/04/28 04:38:28;;;;;;;22.35;15.20;;;6.00;99.90;;;;;;2080920;28;20064;-74
2023/04/28 04:39:30;;;;;;;21.27;15.93;;;6.00;99.90;;;;;;2081425;28;20098;-77
2023/04/28 04:40:31;;;;;;;19.67;14.93;;;6.00;99.90;;;;;;2088261;28;20018;-75
2023/04/28 04:41:31;;;;;;;21.25;15.50;;;6.00;99.90;;;;;;2082021;28;20025;-76
2023/04/28 04:42:48;;;;;;;22.88;15.82;;;6.10;99.90;;;;;;2082949;28;20164;-76
2023/04/28 04:43:52;;;;;;;20.55;14.98;;;6.20;99.90;;;;;;2081473;28;20079;-75
2023/04/28 04:44:52;;;;;;;21.83;16.13;;;6.30;99.90;;;;;;2073179;28;20029;-77
2023/04/28 04:46:02;;;;;;;21.50;16.48;;;6.30;99.90;;;;;;2076060;28;20041;-75
2023/04/28 04:47:03;;;;;;;22.13;15.65;;;6.40;99.90;;;;;;2084531;28;20438;-77
2023/04/28 04:48:06;;;;;;;21.85;16.00;;;6.50;99.90;;;;;;2083511;28;20064;-77
2023/04/28 04:49:06;;;;;;;22.10;15.73;;;6.50;99.90;;;;;;2081413;28;20040;-75
2023/04/28 04:50:07;;;;;;;22.27;16.40;;;6.60;99.90;;;;;;2086435;28;20025;-74
2023/04/28 04:51:08;;;;;;;21.85;15.68;;;6.60;99.90;;;;;;2090245;28;20111;-74
2023/04/28 04:52:09;;;;;;;20.67;15.55;;;6.60;99.90;;;;;;2090568;28;20111;-75
2023/04/28 04:53:09;;;;;;;20.02;15.35;;;6.60;99.90;;;;;;2092547;28;20034;-75
2023/04/28 04:54:10;;;;;;;20.08;15.15;;;6.70;99.90;;;;;;2081360;28;20029;-75
2023/04/28 04:55:13;;;;;;;23.23;16.30;;;6.70;99.90;;;;;;2081981;28;20574;-75
2023/04/28 04:56:15;;;;;;;23.77;15.95;;;6.70;99.90;;;;;;2081050;28;20097;-74
2023/04/28 04:57:16;;;;;;;21.23;15.02;;;6.70;99.90;;;;;;2079191;28;20090;-75
2023/04/28 04:58:35;;;;;;;27.77;17.83;;;6.80;99.90;;;;;;2081302;28;20031;-74
2023/04/28 04:59:55;;;;;;;32.67;20.05;;;6.80;99.90;;;;;;2083703;28;20577;-74
2023/04/28 05:00:55;;;;;;;38.38;21.33;;;6.80;99.90;;;;;;2081503;28;20503;-74
2023/04/28 05:01:56;;;;;;;33.35;20.67;;;6.80;99.90;;;;;;2081796;28;20399;-74
2023/04/28 05:02:57;;;;;;;36.42;21.33;;;6.90;99.90;;;;;;2081281;28;20337;-74
2023/04/28 05:03:58;;;;;;;36.00;21.30;;;6.80;99.90;;;;;;2081609;28;20474;-73
2023/04/28 05:04:59;;;;;;;33.67;20.70;;;6.90;99.90;;;;;;2083280;28;20021;-73
2023/04/28 05:06:01;;;;;;;33.33;21.55;;;6.90;99.90;;;;;;2076963;28;20036;-74
2023/04/28 05:07:08;;;;;;;29.98;19.30;;;6.90;99.90;;;;;;2075257;28;20297;-73
2023/04/28 05:08:12;;;;;;;25.80;17.58;;;6.90;99.90;;;;;;2080319;28;20550;-78
2023/04/28 05:09:13;;;;;;;30.55;18.08;;;6.90;99.90;;;;;;2084239;28;20118;-79
2023/04/28 05:10:13;;;;;;;25.90;17.88;;;6.90;99.90;;;;;;2072523;28;20446;-77
2023/04/28 05:11:15;;;;;;;25.73;17.38;;;6.90;99.90;;;;;;2082473;28;20023;-77
2023/04/28 05:12:15;;;;;;;25.77;17.27;;;7.00;99.90;;;;;;2090372;28;20696;-77
2023/04/28 05:13:16;;;;;;;24.55;16.70;;;7.00;99.90;;;;;;2081577;28;20055;-78
2023/04/28 05:14:17;;;;;;;24.83;16.90;;;7.00;99.90;;;;;;2081457;28;20102;-79
2023/04/28 05:15:18;;;;;;;26.25;17.02;;;7.00;99.90;;;;;;2081784;28;20044;-74